createdAt,value
2016-10-11T00:00:35.890Z,7.58
2016-10-11T00:01:36.103Z,7.6
2016-10-11T00:02:36.069Z,7.57
2016-10-11T00:03:36.029Z,7.52
2016-10-11T00:04:35.993Z,7.57
2016-10-11T00:05:35.647Z,7.45
2016-10-11T00:06:35.910Z,7.5
2016-10-11T00:07:35.879Z,7.53
2016-10-11T00:08:35.535Z,7.49
2016-10-11T00:09:35.491Z,7.5
2016-10-11T00:10:35.757Z,7.49
2016-10-11T00:11:35.414Z,7.45
2016-10-11T00:12:35.378Z,7.58
2016-10-11T00:13:35.339Z,7.46
2016-10-11T00:14:35.608Z,7.48
2016-10-11T00:15:35.562Z,7.57
2016-10-11T00:16:35.525Z,7.45
2016-10-11T00:17:35.480Z,7.37
2016-10-11T00:18:35.146Z,7.5
2016-10-11T00:19:35.103Z,7.49
2016-10-11T00:20:35.378Z,7.39
2016-10-11T00:21:35.332Z,7.42
2016-10-11T00:22:35.293Z,7.39
2016-10-11T00:23:35.255Z,7.45
2016-10-11T00:24:34.906Z,7.48
2016-10-11T00:25:35.184Z,7.48
2016-10-11T00:26:35.134Z,7.37
2016-10-11T00:27:34.792Z,7.35
2016-10-11T00:28:34.761Z,7.39
2016-10-11T00:29:35.016Z,7.39
2016-10-11T00:30:34.684Z,7.39
2016-10-11T00:31:34.644Z,7.39
2016-10-11T00:32:34.602Z,7.48
2016-10-11T00:33:34.865Z,7.4
2016-10-11T00:34:34.827Z,7.37
2016-10-11T00:35:34.791Z,7.42
2016-10-11T00:36:34.761Z,7.35
2016-10-11T00:37:34.402Z,7.37
2016-10-11T00:38:34.367Z,7.34
2016-10-11T00:39:34.627Z,7.31
2016-10-11T00:40:34.287Z,7.34
2016-10-11T00:41:34.554Z,7.34
2016-10-11T00:42:34.516Z,7.34
2016-10-11T00:43:33.876Z,7.28
2016-10-11T00:44:34.433Z,7.37
2016-10-11T00:45:34.396Z,7.34
2016-10-11T00:46:34.059Z,7.37
2016-10-11T00:47:34.316Z,7.3
2016-10-11T00:48:33.975Z,7.27
2016-10-11T00:49:34.239Z,7.24
2016-10-11T00:50:33.902Z,7.32
2016-10-11T00:51:34.158Z,7.25
2016-10-11T00:52:34.138Z,7.3
2016-10-11T00:53:34.077Z,7.25
2016-10-11T00:54:33.742Z,7.25
2016-10-11T00:55:34.008Z,7.23
2016-10-11T00:56:33.666Z,7.16
2016-10-11T00:57:33.931Z,7.17
2016-10-11T00:58:33.893Z,7.25
2016-10-11T00:59:33.850Z,7.23
2016-10-11T01:00:33.515Z,7.24
2016-10-11T01:01:33.777Z,7.17
2016-10-11T01:02:33.733Z,7.2
2016-10-11T01:03:33.390Z,7.2
2016-10-11T01:04:33.048Z,7.09
2016-10-11T01:05:33.313Z,7.17
2016-10-11T01:06:33.576Z,7.15
2016-10-11T01:07:33.232Z,7.09
2016-10-11T01:08:33.493Z,7.17
2016-10-11T01:09:33.456Z,7.13
2016-10-11T01:10:33.419Z,7.07
2016-10-11T01:11:33.378Z,7.07
2016-10-11T01:12:33.340Z,7.09
2016-10-11T01:13:33.299Z,7.12
2016-10-11T01:14:33.261Z,7.09
2016-10-11T01:15:33.225Z,7.13
2016-10-11T01:16:33.181Z,7.13
2016-10-11T01:17:32.840Z,7.09
2016-10-11T01:18:32.808Z,7.09
2016-10-11T01:19:33.066Z,7.13
2016-10-11T01:20:33.024Z,7.09
2016-10-11T01:21:32.384Z,7.05
2016-10-11T01:22:32.944Z,6.98
2016-10-11T01:23:32.605Z,7.05
2016-10-11T01:24:32.867Z,7.1
2016-10-11T01:25:32.527Z,7.1
2016-10-11T01:26:32.495Z,6.95
2016-10-11T01:27:32.751Z,7.1
2016-10-11T01:28:32.711Z,7.05
2016-10-11T01:29:32.371Z,7.02
2016-10-11T01:30:32.635Z,7.03
2016-10-11T01:31:32.287Z,7.16
2016-10-11T01:32:32.550Z,7.07
2016-10-11T01:33:32.216Z,7.03
2016-10-11T01:34:31.873Z,7.06
2016-10-11T01:35:32.438Z,7.06
2016-10-11T01:36:32.408Z,7.09
2016-10-11T01:37:32.359Z,7.06
2016-10-11T01:38:32.320Z,7.13
2016-10-11T01:39:32.282Z,7.07
2016-10-11T01:40:32.242Z,7.02
2016-10-11T01:41:31.900Z,7.07
2016-10-11T01:42:32.161Z,7.02
2016-10-11T01:43:32.124Z,7.09
2016-10-11T01:44:32.106Z,7.05
2016-10-11T01:45:32.046Z,6.97
2016-10-11T01:46:32.009Z,7.02
2016-10-11T01:47:31.966Z,7.02
2016-10-11T01:48:31.623Z,6.95
2016-10-11T01:49:31.886Z,6.95
2016-10-11T01:50:31.852Z,6.97
2016-10-11T01:51:31.812Z,6.89
2016-10-11T01:52:31.766Z,7.02
2016-10-11T01:53:31.732Z,6.99
2016-10-11T01:54:31.693Z,6.99
2016-10-11T01:55:31.648Z,6.91
2016-10-11T01:56:31.312Z,6.98
2016-10-11T01:57:31.575Z,6.97
2016-10-11T01:58:31.229Z,7.02
2016-10-11T01:59:31.497Z,7.02
2016-10-11T02:00:31.457Z,6.99
2016-10-11T02:01:31.426Z,7.05
2016-10-11T02:02:31.379Z,7.05
2016-10-11T02:03:31.339Z,7.03
2016-10-11T02:04:31.003Z,7.06
2016-10-11T02:05:31.259Z,7.05
2016-10-11T02:06:31.221Z,7.06
2016-10-11T02:07:31.181Z,7.05
2016-10-11T02:08:31.142Z,6.97
2016-10-11T02:09:31.099Z,6.98
2016-10-11T02:10:30.757Z,6.98
2016-10-11T02:11:30.723Z,6.94
2016-10-11T02:12:30.685Z,6.98
2016-10-11T02:13:30.944Z,7.02
2016-10-11T02:14:30.605Z,7.02
2016-10-11T02:15:30.867Z,6.95
2016-10-11T02:16:30.531Z,6.89
2016-10-11T02:17:30.792Z,6.92
2016-10-11T02:18:30.749Z,6.85
2016-10-11T02:19:30.707Z,6.89
2016-10-11T02:20:30.669Z,6.95
2016-10-11T02:21:30.333Z,6.89
2016-10-11T02:22:30.288Z,6.94
2016-10-11T02:23:30.247Z,6.87
2016-10-11T02:24:30.210Z,6.84
2016-10-11T02:25:30.475Z,6.85
2016-10-11T02:26:30.439Z,6.94
2016-10-11T02:27:30.394Z,6.91
2016-10-11T02:28:30.354Z,6.91
2016-10-11T02:29:30.015Z,6.92
2016-10-11T02:30:30.276Z,6.91
2016-10-11T02:31:30.242Z,6.89
2016-10-11T02:32:29.591Z,6.88
2016-10-11T02:33:29.559Z,6.85
2016-10-11T02:34:30.125Z,6.98
2016-10-11T02:35:30.080Z,6.92
2016-10-11T02:36:29.741Z,6.91
2016-10-11T02:37:29.699Z,6.94
2016-10-11T02:38:29.657Z,6.88
2016-10-11T02:39:29.922Z,6.87
2016-10-11T02:40:29.890Z,6.94
2016-10-11T02:41:29.842Z,6.94
2016-10-11T02:42:29.502Z,6.92
2016-10-11T02:43:29.462Z,6.91
2016-10-11T02:44:29.726Z,6.88
2016-10-11T02:45:29.082Z,6.92
2016-10-11T02:46:29.649Z,6.88
2016-10-11T02:47:29.607Z,6.98
2016-10-11T02:48:29.268Z,6.95
2016-10-11T02:49:29.530Z,6.88
2016-10-11T02:50:29.515Z,6.94
2016-10-11T02:51:29.454Z,6.91
2016-10-11T02:52:29.412Z,6.94
2016-10-11T02:53:29.376Z,6.91
2016-10-11T02:54:29.032Z,6.88
2016-10-11T02:55:29.292Z,6.88
2016-10-11T02:56:28.953Z,6.97
2016-10-11T02:57:29.216Z,6.97
2016-10-11T02:58:29.176Z,6.89
2016-10-11T02:59:29.141Z,6.91
2016-10-11T03:00:29.096Z,6.88
2016-10-11T03:01:29.059Z,6.88
2016-10-11T03:02:29.017Z,6.94
2016-10-11T03:03:28.975Z,6.88
2016-10-11T03:04:28.641Z,6.94
2016-10-11T03:05:28.901Z,6.88
2016-10-11T03:06:28.863Z,6.89
2016-10-11T03:07:28.822Z,6.92
2016-10-11T03:08:28.782Z,6.91
2016-10-11T03:09:28.747Z,6.94
2016-10-11T03:10:28.707Z,6.91
2016-10-11T03:11:28.361Z,6.89
2016-10-11T03:12:28.626Z,6.88
2016-10-11T03:13:28.593Z,6.94
2016-10-11T03:14:28.547Z,6.91
2016-10-11T03:15:28.213Z,6.88
2016-10-11T03:16:28.472Z,6.92
2016-10-11T03:17:28.428Z,6.94
2016-10-11T03:18:28.085Z,6.98
2016-10-11T03:19:28.352Z,6.89
2016-10-11T03:20:28.315Z,6.89
2016-10-11T03:21:27.969Z,6.92
2016-10-11T03:22:28.235Z,6.89
2016-10-11T03:23:27.893Z,6.91
2016-10-11T03:24:28.154Z,6.88
2016-10-11T03:25:28.113Z,6.88
2016-10-11T03:26:28.075Z,6.88
2016-10-11T03:27:28.039Z,6.97
2016-10-11T03:28:28.005Z,6.94
2016-10-11T03:29:27.955Z,6.89
2016-10-11T03:30:27.924Z,6.91
2016-10-11T03:31:27.583Z,6.98
2016-10-11T03:32:27.845Z,6.92
2016-10-11T03:33:27.801Z,6.94
2016-10-11T03:34:27.460Z,6.88
2016-10-11T03:35:27.730Z,6.94
2016-10-11T03:36:27.383Z,6.88
2016-10-11T03:37:27.664Z,6.94
2016-10-11T03:38:27.003Z,6.85
2016-10-11T03:39:27.573Z,6.91
2016-10-11T03:40:27.528Z,6.91
2016-10-11T03:41:27.490Z,6.88
2016-10-11T03:42:27.455Z,6.87
2016-10-11T03:43:27.408Z,6.88
2016-10-11T03:44:27.076Z,6.88
2016-10-11T03:45:27.334Z,6.92
2016-10-11T03:46:26.988Z,6.87
2016-10-11T03:47:27.261Z,6.88
2016-10-11T03:48:27.214Z,6.91
2016-10-11T03:49:27.181Z,6.97
2016-10-11T03:50:27.133Z,6.89
2016-10-11T03:51:27.096Z,6.97
2016-10-11T03:52:27.053Z,6.87
2016-10-11T03:53:27.018Z,6.85
2016-10-11T03:54:26.987Z,6.89
2016-10-11T03:55:26.941Z,6.91
2016-10-11T03:56:26.900Z,7.03
2016-10-11T03:57:26.859Z,6.94
2016-10-11T03:58:26.821Z,6.94
2016-10-11T03:59:26.780Z,6.88
2016-10-11T04:00:26.441Z,7.05
2016-10-11T04:01:26.701Z,6.97
2016-10-11T04:02:26.672Z,6.85
2016-10-11T04:03:26.624Z,7.05
2016-10-11T04:04:26.582Z,6.95
2016-10-11T04:05:26.548Z,7.02
2016-10-11T04:06:26.506Z,7.02
2016-10-11T04:07:26.467Z,6.99
2016-10-11T04:08:26.430Z,6.88
2016-10-11T04:09:26.390Z,6.98
2016-10-11T04:10:26.348Z,6.89
2016-10-11T04:11:26.309Z,7.02
2016-10-11T04:12:26.273Z,7.02
2016-10-11T04:13:26.232Z,6.89
2016-10-11T04:14:26.192Z,6.92
2016-10-11T04:15:26.157Z,6.95
2016-10-11T04:16:25.812Z,6.89
2016-10-11T04:17:25.774Z,6.88
2016-10-11T04:18:25.740Z,6.88
2016-10-11T04:19:26.003Z,6.88
2016-10-11T04:20:25.960Z,6.91
2016-10-11T04:21:25.617Z,6.84
2016-10-11T04:22:25.876Z,6.87
2016-10-11T04:23:25.838Z,6.87
2016-10-11T04:24:25.496Z,6.81
2016-10-11T04:25:25.761Z,6.84
2016-10-11T04:26:25.730Z,6.87
2016-10-11T04:27:25.680Z,6.84
2016-10-11T04:28:25.340Z,6.79
2016-10-11T04:29:25.302Z,6.84
2016-10-11T04:30:25.571Z,6.84
2016-10-11T04:31:25.531Z,6.74
2016-10-11T04:32:25.182Z,6.8
2016-10-11T04:33:25.143Z,6.79
2016-10-11T04:34:25.406Z,6.79
2016-10-11T04:35:25.062Z,6.85
2016-10-11T04:36:25.324Z,6.77
2016-10-11T04:37:24.985Z,6.81
2016-10-11T04:38:24.952Z,6.81
2016-10-11T04:39:25.211Z,6.76
2016-10-11T04:40:24.868Z,6.73
2016-10-11T04:41:25.129Z,6.71
2016-10-11T04:42:25.088Z,6.73
2016-10-11T04:43:24.750Z,6.71
2016-10-11T04:44:24.708Z,6.69
2016-10-11T04:45:24.984Z,6.7
2016-10-11T04:46:24.933Z,6.73
2016-10-11T04:47:24.893Z,6.59
2016-10-11T04:48:24.553Z,6.55
2016-10-11T04:49:24.814Z,6.62
2016-10-11T04:50:24.773Z,6.61
2016-10-11T04:51:24.433Z,6.67
2016-10-11T04:52:24.695Z,6.7
2016-10-11T04:53:24.052Z,6.61
2016-10-11T04:54:24.310Z,6.62
2016-10-11T04:55:24.583Z,6.59
2016-10-11T04:56:24.535Z,6.58
2016-10-11T04:57:24.500Z,6.54
2016-10-11T04:58:24.467Z,6.59
2016-10-11T04:59:24.420Z,6.59
2016-10-11T05:00:24.386Z,6.58
2016-10-11T05:01:24.341Z,6.62
2016-10-11T05:02:24.311Z,6.51
2016-10-11T05:03:24.260Z,6.56
2016-10-11T05:04:24.218Z,6.58
2016-10-11T05:05:24.188Z,6.51
2016-10-11T05:06:24.143Z,6.48
2016-10-11T05:07:24.104Z,6.55
2016-10-11T05:08:24.063Z,6.49
2016-10-11T05:09:24.023Z,6.51
2016-10-11T05:10:23.985Z,6.49
2016-10-11T05:11:23.948Z,6.46
2016-10-11T05:12:23.609Z,6.46
2016-10-11T05:13:23.867Z,6.43
2016-10-11T05:14:23.527Z,6.38
2016-10-11T05:15:23.790Z,6.46
2016-10-11T05:16:23.749Z,6.38
2016-10-11T05:17:23.710Z,6.38
2016-10-11T05:18:23.675Z,6.46
2016-10-11T05:19:23.025Z,6.44
2016-10-11T05:20:23.287Z,6.44
2016-10-11T05:21:23.551Z,6.43
2016-10-11T05:22:23.509Z,6.43
2016-10-11T05:23:23.474Z,6.38
2016-10-11T05:24:23.432Z,6.4
2016-10-11T05:25:23.390Z,6.46
2016-10-11T05:26:23.053Z,6.36
2016-10-11T05:27:23.318Z,6.38
2016-10-11T05:28:23.274Z,6.38
2016-10-11T05:29:23.232Z,6.46
2016-10-11T05:30:22.894Z,6.41
2016-10-11T05:31:22.855Z,6.4
2016-10-11T05:32:23.114Z,6.38
2016-10-11T05:33:23.073Z,6.38
2016-10-11T05:34:23.041Z,6.46
2016-10-11T05:35:23.008Z,6.48
2016-10-11T05:36:22.956Z,6.46
2016-10-11T05:37:22.915Z,6.4
2016-10-11T05:38:22.880Z,6.49
2016-10-11T05:39:22.840Z,6.46
2016-10-11T05:40:22.492Z,6.46
2016-10-11T05:41:22.766Z,6.44
2016-10-11T05:42:22.719Z,6.46
2016-10-11T05:43:22.681Z,6.49
2016-10-11T05:44:22.638Z,6.46
2016-10-11T05:45:22.299Z,6.52
2016-10-11T05:46:22.561Z,6.41
2016-10-11T05:47:22.519Z,6.46
2016-10-11T05:48:22.480Z,6.51
2016-10-11T05:49:22.444Z,6.51
2016-10-11T05:50:22.406Z,6.51
2016-10-11T05:51:22.363Z,6.46
2016-10-11T05:52:22.018Z,6.48
2016-10-11T05:53:22.284Z,6.51
2016-10-11T05:54:22.243Z,6.44
2016-10-11T05:55:22.206Z,6.49
2016-10-11T05:56:22.166Z,6.46
2016-10-11T05:57:22.129Z,6.56
2016-10-11T05:58:22.088Z,6.54
2016-10-11T05:59:22.046Z,6.59
2016-10-11T06:00:22.013Z,6.55
2016-10-11T06:01:21.964Z,6.51
2016-10-11T06:02:21.926Z,6.55
2016-10-11T06:03:21.898Z,6.55
2016-10-11T06:04:21.548Z,6.54
2016-10-11T06:05:21.507Z,6.56
2016-10-11T06:06:21.468Z,6.58
2016-10-11T06:07:21.729Z,6.62
2016-10-11T06:08:21.688Z,6.67
2016-10-11T06:09:21.653Z,6.67
2016-10-11T06:10:21.322Z,6.69
2016-10-11T06:11:21.579Z,6.73
2016-10-11T06:12:21.537Z,6.71
2016-10-11T06:13:21.494Z,6.67
2016-10-11T06:14:21.472Z,6.67
2016-10-11T06:15:21.411Z,6.73
2016-10-11T06:16:21.071Z,6.76
2016-10-11T06:17:21.339Z,6.67
2016-10-11T06:18:21.300Z,6.7
2016-10-11T06:19:21.267Z,6.7
2016-10-11T06:20:21.216Z,6.77
2016-10-11T06:21:21.180Z,6.79
2016-10-11T06:22:20.838Z,6.74
2016-10-11T06:23:20.795Z,6.81
2016-10-11T06:24:21.054Z,6.8
2016-10-11T06:25:21.042Z,6.81
2016-10-11T06:26:20.981Z,6.87
2016-10-11T06:27:20.945Z,6.94
2016-10-11T06:28:20.908Z,6.85
2016-10-11T06:29:20.858Z,6.95
2016-10-11T06:30:20.821Z,6.88
2016-10-11T06:31:20.473Z,6.99
2016-10-11T06:32:20.740Z,6.95
2016-10-11T06:33:20.705Z,6.97
2016-10-11T06:34:20.361Z,6.98
2016-10-11T06:35:20.621Z,7.05
2016-10-11T06:36:20.584Z,7.13
2016-10-11T06:37:20.548Z,6.98
2016-10-11T06:38:20.501Z,7.12
2016-10-11T06:39:20.467Z,7.1
2016-10-11T06:40:20.440Z,7.21
2016-10-11T06:41:20.086Z,7.2
2016-10-11T06:42:20.044Z,7.21
2016-10-11T06:43:20.003Z,7.27
2016-10-11T06:44:20.268Z,7.28
2016-10-11T06:45:20.227Z,7.37
2016-10-11T06:46:20.188Z,7.35
2016-10-11T06:47:20.155Z,7.4
2016-10-11T06:48:20.113Z,7.49
2016-10-11T06:49:19.771Z,7.48
2016-10-11T06:50:20.035Z,7.68
2016-10-11T06:51:19.995Z,7.64
2016-10-11T06:52:19.955Z,7.75
2016-10-11T06:53:19.620Z,7.72
2016-10-11T06:54:19.888Z,7.79
2016-10-11T06:55:19.838Z,7.83
2016-10-11T06:56:19.803Z,7.86
2016-10-11T06:57:19.763Z,8
2016-10-11T06:58:19.732Z,7.92
2016-10-11T06:59:19.684Z,8.01
2016-10-11T07:00:19.346Z,8.1
2016-10-11T07:01:19.301Z,8.02
2016-10-11T07:02:19.265Z,8.18
2016-10-11T07:03:19.537Z,8.2
2016-10-11T07:04:19.492Z,8.15
2016-10-11T07:05:19.454Z,8.25
2016-10-11T07:06:19.412Z,8.22
2016-10-11T07:07:19.076Z,8.34
2016-10-11T07:08:19.030Z,8.33
2016-10-11T07:09:19.297Z,8.41
2016-10-11T07:10:19.263Z,8.43
2016-10-11T07:11:18.926Z,8.4
2016-10-11T07:12:18.879Z,8.5
2016-10-11T07:13:19.147Z,8.53
2016-10-11T07:14:18.808Z,8.41
2016-10-11T07:15:19.064Z,8.37
2016-10-11T07:16:19.031Z,8.5
2016-10-11T07:17:18.990Z,8.41
2016-10-11T07:18:18.967Z,8.41
2016-10-11T07:19:18.618Z,8.53
2016-10-11T07:20:18.580Z,8.61
2016-10-11T07:21:18.839Z,8.65
2016-10-11T07:22:18.196Z,8.62
2016-10-11T07:23:18.778Z,8.65
2016-10-11T07:24:18.727Z,8.71
2016-10-11T07:25:18.386Z,8.77
2016-10-11T07:26:18.651Z,8.7
2016-10-11T07:27:18.302Z,8.71
2016-10-11T07:28:18.572Z,8.63
2016-10-11T07:29:18.228Z,8.73
2016-10-11T07:30:18.494Z,8.7
2016-10-11T07:31:18.450Z,8.92
2016-10-11T07:32:18.419Z,8.96
2016-10-11T07:33:18.383Z,9.02
2016-10-11T07:34:18.344Z,9.04
2016-10-11T07:35:18.008Z,9.08
2016-10-11T07:36:18.269Z,9.01
2016-10-11T07:37:18.228Z,9.02
2016-10-11T07:38:18.196Z,9.1
2016-10-11T07:39:17.851Z,9.28
2016-10-11T07:40:17.833Z,9.4
2016-10-11T07:41:18.079Z,9.4
2016-10-11T07:42:18.041Z,9.46
2016-10-11T07:43:18.002Z,9.46
2016-10-11T07:44:17.979Z,9.48
2016-10-11T07:45:17.924Z,9.54
2016-10-11T07:46:17.895Z,9.71
2016-10-11T07:47:17.547Z,9.72
2016-10-11T07:48:17.819Z,9.75
2016-10-11T07:49:17.781Z,9.75
2016-10-11T07:50:17.745Z,9.78
2016-10-11T07:51:17.720Z,9.78
2016-10-11T07:52:17.664Z,9.74
2016-10-11T07:53:17.629Z,9.75
2016-10-11T07:54:17.592Z,9.86
2016-10-11T07:55:17.551Z,9.89
2016-10-11T07:56:17.227Z,10.11
2016-10-11T07:57:17.177Z,10.05
2016-10-11T07:58:17.445Z,10.09
2016-10-11T07:59:17.402Z,10.04
2016-10-11T08:00:17.366Z,10.2
2016-10-11T08:01:17.327Z,10.29
2016-10-11T08:02:16.689Z,10.52
2016-10-11T08:03:17.259Z,10.68
2016-10-11T08:04:17.221Z,10.78
2016-10-11T08:05:17.183Z,10.96
2016-10-11T08:06:17.141Z,11.09
2016-10-11T08:07:17.114Z,11.42
2016-10-11T08:08:17.077Z,11.65
2016-10-11T08:09:17.039Z,12.07
2016-10-11T08:10:17.010Z,12.31
2016-10-11T08:11:16.965Z,12.54
2016-10-11T08:12:16.954Z,12.95
2016-10-11T08:13:16.901Z,13.07
2016-10-11T08:14:16.859Z,13.41
2016-10-11T08:15:16.821Z,13.67
2016-10-11T08:16:16.791Z,13.97
2016-10-11T08:17:16.754Z,14.24
2016-10-11T08:18:16.721Z,14.39
2016-10-11T08:19:16.692Z,14.39
2016-10-11T08:20:16.349Z,14.39
2016-10-11T08:21:16.615Z,14.33
2016-10-11T08:22:16.585Z,14.32
2016-10-11T08:23:16.553Z,14.37
2016-10-11T08:24:16.518Z,14.58
2016-10-11T08:25:16.483Z,14.6
2016-10-11T08:26:16.146Z,14.47
2016-10-11T08:27:16.415Z,14.29
2016-10-11T08:28:16.383Z,14.29
2016-10-11T08:29:16.350Z,14.39
2016-10-11T08:30:16.313Z,14.46
2016-10-11T08:31:15.980Z,14.7
2016-10-11T08:32:16.251Z,14.64
2016-10-11T08:33:15.915Z,14.62
2016-10-11T08:34:16.191Z,14.57
2016-10-11T08:35:16.151Z,14.54
2016-10-11T08:36:16.118Z,14.77
2016-10-11T08:37:16.088Z,14.92
2016-10-11T08:38:16.052Z,15.17
2016-10-11T08:39:16.019Z,15.35
2016-10-11T08:40:15.996Z,15.84
2016-10-11T08:41:15.652Z,16.35
2016-10-11T08:42:15.920Z,17.22
2016-10-11T08:43:15.593Z,17.97
2016-10-11T08:44:15.555Z,18.37
2016-10-11T08:45:15.520Z,18.44
2016-10-11T08:46:15.792Z,18.39
2016-10-11T08:47:15.764Z,18.58
2016-10-11T08:48:15.734Z,18.41
2016-10-11T08:49:15.706Z,18.21
2016-10-11T08:50:15.672Z,18.11
2016-10-11T08:51:15.037Z,18.29
2016-10-11T08:52:15.308Z,18.3
2016-10-11T08:53:15.588Z,18.11
2016-10-11T08:54:15.550Z,17.79
2016-10-11T08:55:15.523Z,17.81
2016-10-11T08:56:15.493Z,18.1
2016-10-11T08:57:15.457Z,18.02
2016-10-11T08:58:15.433Z,17.68
2016-10-11T08:59:15.400Z,17.38
2016-10-11T09:00:15.379Z,17.38
2016-10-11T09:01:15.040Z,16.88
2016-10-11T09:02:15.020Z,16.7
2016-10-11T09:03:15.284Z,16.7
2016-10-11T09:04:15.253Z,16.7
2016-10-11T09:05:14.916Z,16.48
2016-10-11T09:06:14.904Z,16.34
2016-10-11T09:07:15.180Z,16.23
2016-10-11T09:08:15.128Z,16.15
2016-10-11T09:09:15.112Z,16.31
2016-10-11T09:10:15.072Z,16.33
2016-10-11T09:11:15.041Z,16.27
2016-10-11T09:12:15.005Z,16.41
2016-10-11T09:13:15.336Z,16.42
2016-10-11T09:14:14.952Z,16.56
2016-10-11T09:15:14.907Z,17.48
2016-10-11T09:16:14.885Z,18.37
2016-10-11T09:17:14.848Z,19.41
2016-10-11T09:18:14.819Z,20.06
2016-10-11T09:19:14.789Z,20.54
2016-10-11T09:20:14.461Z,20.98
2016-10-11T09:21:14.429Z,21.09
2016-10-11T09:22:14.705Z,20.18
2016-10-11T09:23:14.673Z,19.23
2016-10-11T09:24:14.652Z,18.29
2016-10-11T09:25:14.613Z,17.4
2016-10-11T09:26:14.589Z,16.93
2016-10-11T09:27:14.556Z,16.68
2016-10-11T09:28:14.225Z,17.01
2016-10-11T09:29:14.196Z,17.77
2016-10-11T09:30:14.166Z,18.07
2016-10-11T09:31:14.444Z,18.69
2016-10-11T09:32:14.412Z,18.81
2016-10-11T09:33:14.385Z,18.57
2016-10-11T09:34:14.351Z,18.51
2016-10-11T09:35:14.334Z,18.62
2016-10-11T09:36:14.294Z,18.41
2016-10-11T09:37:14.269Z,18.18
2016-10-11T09:38:14.234Z,18.29
2016-10-11T09:39:14.222Z,18.6
2016-10-11T09:40:14.175Z,18.18
2016-10-11T09:41:14.149Z,17.74
2016-10-11T09:42:13.817Z,17.44
2016-10-11T09:43:13.789Z,17.11
2016-10-11T09:44:14.058Z,16.75
2016-10-11T09:45:14.030Z,16.43
2016-10-11T09:46:14.010Z,16.24
2016-10-11T09:47:13.972Z,15.82
2016-10-11T09:48:13.943Z,15.49
2016-10-11T09:49:13.915Z,15.34
2016-10-11T09:50:13.886Z,15.14
2016-10-11T09:51:13.551Z,14.86
2016-10-11T09:52:13.517Z,14.75
2016-10-11T09:53:13.503Z,14.64
2016-10-11T09:54:13.759Z,14.5
2016-10-11T09:55:13.427Z,14.51
2016-10-11T09:56:13.709Z,14.55
2016-10-11T09:57:13.366Z,14.45
2016-10-11T09:58:13.643Z,14.47
2016-10-11T09:59:13.603Z,14.6
2016-10-11T10:00:13.584Z,14.73
2016-10-11T10:01:13.542Z,14.91
2016-10-11T10:02:13.518Z,14.99
2016-10-11T10:03:13.478Z,15.1
2016-10-11T10:04:13.445Z,15.19
2016-10-11T10:05:13.421Z,15.27
2016-10-11T10:06:13.084Z,15.43
2016-10-11T10:07:13.360Z,15.36
2016-10-11T10:08:13.323Z,15.68
2016-10-11T10:09:13.291Z,15.74
2016-10-11T10:10:13.253Z,15.84
2016-10-11T10:11:13.231Z,15.74
2016-10-11T10:12:13.202Z,15.65
2016-10-11T10:13:13.167Z,15.64
2016-10-11T10:14:12.831Z,15.43
2016-10-11T10:15:13.097Z,15.35
2016-10-11T10:16:13.063Z,15.29
2016-10-11T10:17:12.729Z,15.36
2016-10-11T10:18:13.006Z,15.35
2016-10-11T10:19:12.967Z,15.34
2016-10-11T10:20:12.331Z,15.21
2016-10-11T10:21:12.902Z,15.31
2016-10-11T10:22:12.875Z,15.35
2016-10-11T10:23:12.532Z,15.38
2016-10-11T10:24:12.505Z,15.44
2016-10-11T10:25:12.774Z,15.62
2016-10-11T10:26:12.743Z,15.65
2016-10-11T10:27:12.708Z,16.12
2016-10-11T10:28:12.685Z,16.35
2016-10-11T10:29:12.652Z,16.39
2016-10-11T10:30:12.009Z,16.42
2016-10-11T10:31:12.578Z,16.24
2016-10-11T10:32:12.565Z,16.31
2016-10-11T10:33:12.522Z,16.27
2016-10-11T10:34:12.488Z,16.2
2016-10-11T10:35:12.458Z,16.21
2016-10-11T10:36:12.424Z,16.28
2016-10-11T10:37:12.094Z,15.96
2016-10-11T10:38:12.360Z,15.86
2016-10-11T10:39:12.031Z,15.72
2016-10-11T10:40:12.300Z,15.39
2016-10-11T10:41:12.271Z,15.2
2016-10-11T10:42:11.936Z,15.43
2016-10-11T10:43:12.203Z,15.86
2016-10-11T10:44:11.570Z,16.35
2016-10-11T10:45:12.144Z,16.71
2016-10-11T10:46:12.118Z,17.15
2016-10-11T10:47:12.080Z,17.52
2016-10-11T10:48:12.048Z,17.7
2016-10-11T10:49:11.717Z,17.36
2016-10-11T10:50:11.986Z,17.41
2016-10-11T10:51:11.952Z,16.97
2016-10-11T10:52:11.627Z,16.64
2016-10-11T10:53:11.897Z,16.83
2016-10-11T10:54:11.868Z,17.33
2016-10-11T10:55:11.537Z,17.51
2016-10-11T10:56:11.542Z,17.96
2016-10-11T10:57:11.783Z,17.81
2016-10-11T10:58:11.751Z,17.33
2016-10-11T10:59:11.715Z,16.93
2016-10-11T11:00:11.705Z,16.82
2016-10-11T11:01:11.670Z,16.89
2016-10-11T11:02:11.327Z,17.34
2016-10-11T11:03:11.293Z,17.63
2016-10-11T11:04:11.568Z,17.77
2016-10-11T11:05:11.234Z,17.79
2016-10-11T11:06:11.202Z,17.72
2016-10-11T11:07:11.171Z,17.51
2016-10-11T11:08:11.449Z,17.46
2016-10-11T11:09:11.447Z,17.37
2016-10-11T11:10:11.398Z,17.55
2016-10-11T11:11:11.066Z,17.62
2016-10-11T11:12:11.331Z,17.66
2016-10-11T11:13:10.695Z,17.36
2016-10-11T11:14:10.964Z,17.36
2016-10-11T11:15:11.239Z,16.96
2016-10-11T11:16:11.210Z,16.73
2016-10-11T11:17:11.179Z,16.5
2016-10-11T11:18:10.842Z,16.23
2016-10-11T11:19:11.116Z,16.02
2016-10-11T11:20:11.087Z,15.89
2016-10-11T11:21:10.760Z,15.57
2016-10-11T11:22:11.025Z,15.28
2016-10-11T11:23:10.993Z,15.03
2016-10-11T11:24:10.961Z,14.95
2016-10-11T11:25:10.627Z,14.75
2016-10-11T11:26:10.900Z,14.62
2016-10-11T11:27:10.870Z,14.6
2016-10-11T11:28:10.836Z,14.43
2016-10-11T11:29:10.804Z,14.37
2016-10-11T11:30:10.773Z,13.97
2016-10-11T11:31:10.750Z,13.55
2016-10-11T11:32:10.711Z,13.42
2016-10-11T11:33:10.376Z,13.46
2016-10-11T11:34:10.644Z,13.48
2016-10-11T11:35:10.613Z,13.38
2016-10-11T11:36:10.276Z,13.39
2016-10-11T11:37:10.243Z,13.41
2016-10-11T11:38:10.512Z,13.55
2016-10-11T11:39:10.481Z,13.59
2016-10-11T11:40:10.147Z,13.57
2016-10-11T11:41:10.410Z,13.67
2016-10-11T11:42:10.385Z,13.69
2016-10-11T11:43:10.353Z,13.64
2016-10-11T11:44:10.010Z,13.69
2016-10-11T11:45:09.980Z,13.55
2016-10-11T11:46:10.245Z,13.52
2016-10-11T11:47:09.923Z,13.69
2016-10-11T11:48:09.578Z,13.63
2016-10-11T11:49:10.147Z,13.73
2016-10-11T11:50:09.808Z,13.55
2016-10-11T11:51:10.073Z,13.62
2016-10-11T11:52:10.060Z,13.55
2016-10-11T11:53:10.017Z,13.45
2016-10-11T11:54:09.981Z,13.32
2016-10-11T11:55:09.945Z,13.29
2016-10-11T11:56:09.902Z,13.19
2016-10-11T11:57:09.885Z,13.14
2016-10-11T11:58:09.534Z,13.12
2016-10-11T11:59:09.808Z,13.11
2016-10-11T12:00:09.475Z,13.07
2016-10-11T12:01:09.731Z,13.26
2016-10-11T12:02:09.401Z,13.19
2016-10-11T12:03:09.667Z,13.25
2016-10-11T12:04:09.636Z,13.25
2016-10-11T12:05:09.601Z,13.19
2016-10-11T12:06:09.567Z,13.23
2016-10-11T12:07:09.529Z,13.05
2016-10-11T12:08:09.499Z,13.05
2016-10-11T12:09:09.463Z,12.97
2016-10-11T12:10:09.426Z,13.01
2016-10-11T12:11:09.391Z,12.93
2016-10-11T12:12:09.051Z,12.97
2016-10-11T12:13:09.322Z,13.03
2016-10-11T12:14:09.290Z,13.07
2016-10-11T12:15:09.258Z,13.04
2016-10-11T12:16:09.218Z,13.04
2016-10-11T12:17:08.876Z,13.05
2016-10-11T12:18:09.148Z,12.96
2016-10-11T12:19:09.110Z,12.86
2016-10-11T12:20:08.774Z,12.86
2016-10-11T12:21:09.043Z,12.79
2016-10-11T12:22:09.007Z,12.79
2016-10-11T12:23:08.675Z,12.72
2016-10-11T12:24:08.935Z,12.65
2016-10-11T12:25:08.901Z,12.65
2016-10-11T12:26:08.864Z,12.59
2016-10-11T12:27:08.833Z,12.7
2016-10-11T12:28:08.804Z,12.78
2016-10-11T12:29:08.766Z,12.77
2016-10-11T12:30:08.726Z,12.85
2016-10-11T12:31:08.701Z,12.86
2016-10-11T12:32:08.659Z,12.95
2016-10-11T12:33:08.620Z,13.04
2016-10-11T12:34:08.596Z,13.28
2016-10-11T12:35:08.555Z,13.49
2016-10-11T12:36:08.521Z,13.82
2016-10-11T12:37:08.492Z,13.92
2016-10-11T12:38:08.449Z,14.09
2016-10-11T12:39:08.111Z,14.37
2016-10-11T12:40:08.379Z,14.28
2016-10-11T12:41:08.353Z,14.21
2016-10-11T12:42:08.333Z,14.1
2016-10-11T12:43:08.280Z,14.15
2016-10-11T12:44:08.243Z,13.96
2016-10-11T12:45:07.609Z,13.87
2016-10-11T12:46:08.174Z,13.7
2016-10-11T12:47:08.138Z,13.54
2016-10-11T12:48:08.101Z,13.36
2016-10-11T12:49:07.773Z,13.26
2016-10-11T12:50:08.034Z,13.28
2016-10-11T12:51:07.996Z,13.25
2016-10-11T12:52:07.967Z,13.22
2016-10-11T12:53:07.932Z,13.17
2016-10-11T12:54:07.904Z,13.11
2016-10-11T12:55:07.863Z,13.11
2016-10-11T12:56:07.828Z,13.04
2016-10-11T12:57:07.796Z,13.2
2016-10-11T12:58:07.764Z,13.26
2016-10-11T12:59:07.725Z,13.17
2016-10-11T13:00:07.093Z,13.28
2016-10-11T13:01:07.656Z,13.39
2016-10-11T13:02:07.316Z,13.57
2016-10-11T13:03:07.705Z,13.62
2016-10-11T13:04:07.249Z,13.67
2016-10-11T13:05:07.520Z,13.71
2016-10-11T13:06:07.486Z,13.82
2016-10-11T13:07:07.147Z,13.96
2016-10-11T13:08:07.424Z,14.04
2016-10-11T13:09:07.383Z,14.02